Time;durP1;ratioP1;P1;durP2;ratioP2;P2;SDS_P1;SDS_P2;PMS_P1;PMS_P2;Temp;Humidity;BMP_temperature;BMP_pressure;BME280_temperature;BME280_humidity;BME280_pressure;Samples;Min_cycle;Max_cycle;Signal;HPM_P1;HPM_P2
2023/10/02 00:01:48;;;;;;;8.40;3.17;;;;;;;17.02;64.85;101654.88;5007756;28;20253;-72
2023/10/02 00:04:16;;;;;;;6.00;3.23;;;;;;;17.00;64.77;101636.53;5010666;28;20205;-71
2023/10/02 00:06:43;;;;;;;5.03;3.30;;;;;;;16.99;64.65;101644.88;5005123;28;20315;-70
2023/10/02 00:09:11;;;;;;;6.70;3.30;;;;;;;16.96;64.45;101646.34;4992411;28;20228;-71
2023/10/02 00:11:37;;;;;;;10.53;3.57;;;;;;;16.96;64.47;101645.56;4992647;28;21765;-71
2023/10/02 00:14:22;;;;;;;5.17;3.40;;;;;;;16.94;64.31;101639.81;4994584;28;20219;-73
2023/10/02 00:17:00;;;;;;;4.70;3.30;;;;;;;16.91;64.44;101638.59;5010264;28;20319;-72
2023/10/02 00:19:36;;;;;;;6.97;4.03;;;;;;;16.88;64.52;101639.25;5011180;28;20227;-69
2023/10/02 00:22:05;;;;;;;6.47;3.60;;;;;;;16.85;64.18;101631.97;5009302;28;20219;-73
2023/10/02 00:24:35;;;;;;;4.73;3.63;;;;;;;16.82;64.21;101629.97;5010616;28;20262;-73
2023/10/02 00:27:03;;;;;;;9.30;3.80;;;;;;;16.80;64.09;101636.75;5010128;28;20215;-72
2023/10/02 00:29:30;;;;;;;8.97;3.60;;;;;;;16.75;64.13;101621.78;5010668;28;20228;-72
2023/10/02 00:31:59;;;;;;;6.40;3.47;;;;;;;16.70;64.21;101627.38;5005400;28;20195;-72
2023/10/02 00:34:33;;;;;;;5.47;3.27;;;;;;;16.65;64.17;101627.59;4994840;28;20239;-72
2023/10/02 00:37:06;;;;;;;6.07;3.50;;;;;;;16.61;64.24;101631.31;4986620;28;20207;-71
2023/10/02 00:39:36;;;;;;;8.40;3.50;;;;;;;16.55;64.33;101625.44;4997083;28;20253;-72
2023/10/02 00:42:15;;;;;;;6.83;3.43;;;;;;;16.49;64.38;101623.34;5012407;28;20319;-73
2023/10/02 00:44:54;;;;;;;8.33;3.87;;;;;;;16.43;64.67;101620.16;4997292;28;20211;-75
2023/10/02 00:47:45;;;;;;;6.23;3.47;;;;;;;16.37;65.00;101610.03;5011222;28;20218;-75
2023/10/02 00:50:16;;;;;;;7.93;3.40;;;;;;;16.30;65.43;101617.84;5009998;28;20284;-74
2023/10/02 00:52:47;;;;;;;8.30;3.57;;;;;;;16.22;65.43;101606.19;5008712;28;20344;-75
2023/10/02 00:55:15;;;;;;;6.20;3.60;;;;;;;16.16;65.77;101610.22;4990877;28;20237;-73
2023/10/02 00:57:43;;;;;;;6.60;3.97;;;;;;;16.09;65.92;101625.97;4990558;28;20680;-72
2023/10/02 01:00:20;;;;;;;5.70;3.10;;;;;;;16.02;66.03;101625.00;5002847;28;20222;-72
2023/10/02 01:02:57;;;;;;;5.93;3.07;;;;;;;15.95;66.51;101624.78;4990989;28;20203;-72
2023/10/02 01:05:30;;;;;;;7.80;3.70;;;;;;;15.87;66.74;101615.03;5008652;28;20211;-72
2023/10/02 01:07:58;;;;;;;5.93;3.27;;;;;;;15.79;67.05;101621.28;4993211;28;20351;-73
2023/10/02 01:10:29;;;;;;;5.87;3.30;;;;;;;15.71;67.15;101614.16;4993143;28;20761;-73
2023/10/02 01:13:01;;;;;;;6.13;3.30;;;;;;;15.63;67.78;101604.41;5008638;28;20361;-73
2023/10/02 01:15:28;;;;;;;7.30;3.47;;;;;;;15.57;68.03;101603.09;4994981;28;20335;-73
2023/10/02 01:18:21;;;;;;;5.10;3.20;;;;;;;15.49;68.52;101603.97;4992262;28;20681;-73
2023/10/02 01:20:48;;;;;;;10.40;4.53;;;;;;;15.41;68.98;101610.97;4990849;28;20378;-73
2023/10/02 01:23:17;;;;;;;7.00;3.73;;;;;;;15.35;68.89;101609.63;5008388;28;20208;-73
2023/10/02 01:25:46;;;;;;;5.63;3.67;;;;;;;15.30;69.20;101611.69;4992481;28;20229;-73
2023/10/02 01:28:15;;;;;;;8.10;4.00;;;;;;;15.24;69.21;101613.03;5012151;28;20561;-73
2023/10/02 01:30:44;;;;;;;6.47;3.97;;;;;;;15.16;69.60;101609.34;4996355;28;20315;-73
2023/10/02 01:33:17;;;;;;;6.13;3.53;;;;;;;15.09;69.36;101605.69;5014610;28;20200;-73
2023/10/02 01:35:48;;;;;;;8.67;3.73;;;;;;;15.03;70.10;101614.97;5013912;28;20200;-73
2023/10/02 01:38:18;;;;;;;6.50;4.37;;;;;;;14.96;69.91;101609.44;5014631;28;20718;-73
2023/10/02 01:40:49;;;;;;;7.03;4.07;;;;;;;14.89;70.47;101604.66;4995976;28;20219;-73
2023/10/02 01:43:17;;;;;;;7.87;3.93;;;;;;;14.82;70.42;101606.28;4997228;28;20219;-73
2023/10/02 01:45:45;;;;;;;7.07;4.00;;;;;;;14.76;70.43;101608.38;5014482;28;20280;-73
2023/10/02 01:48:15;;;;;;;7.67;3.90;;;;;;;14.68;70.65;101611.91;4998201;28;20207;-73
2023/10/02 01:50:43;;;;;;;8.10;3.90;;;;;;;14.63;70.86;101612.09;5008912;28;20776;-73
2023/10/02 01:53:28;;;;;;;8.57;4.37;;;;;;;14.57;70.60;101607.31;5008150;28;20216;-73
2023/10/02 01:56:00;;;;;;;8.93;4.30;;;;;;;14.51;71.49;101603.31;5013656;28;20210;-73
2023/10/02 01:58:28;;;;;;;7.10;3.97;;;;;;;14.45;71.19;101604.63;4997417;28;20206;-73
2023/10/02 02:00:54;;;;;;;8.10;5.00;;;;;;;14.40;70.83;101602.16;4997308;28;20308;-73
2023/10/02 02:03:22;;;;;;;7.47;4.23;;;;;;;14.34;71.50;101606.13;5016274;28;20218;-73
2023/10/02 02:05:49;;;;;;;8.30;4.80;;;;;;;14.30;72.04;101602.56;4998471;28;20215;-73
2023/10/02 02:08:25;;;;;;;8.43;4.10;;;;;;;14.25;72.75;101602.75;5000432;28;20273;-73
2023/10/02 02:10:53;;;;;;;9.77;4.80;;;;;;;14.19;72.81;101599.50;5007924;28;20370;-73
2023/10/02 02:13:22;;;;;;;8.87;4.63;;;;;;;14.15;72.67;101600.44;4992355;28;20230;-73
2023/10/02 02:16:06;;;;;;;9.53;4.63;;;;;;;14.09;72.55;101605.19;4996119;28;20612;-74
2023/10/02 02:18:33;;;;;;;11.13;5.00;;;;;;;14.05;73.08;101598.16;4997024;28;20211;-74
2023/10/02 02:20:59;;;;;;;9.47;4.80;;;;;;;14.01;73.44;101598.03;5015983;28;20222;-73
2023/10/02 02:23:27;;;;;;;11.63;4.80;;;;;;;13.97;73.64;101596.38;4996963;28;20221;-73
2023/10/02 02:25:53;;;;;;;10.20;5.00;;;;;;;13.92;73.68;101605.28;4996304;28;20271;-73
2023/10/02 02:28:21;;;;;;;12.63;5.10;;;;;;;13.90;74.49;101604.06;4997927;28;21361;-73
2023/10/02 02:30:47;;;;;;;9.20;4.90;;;;;;;13.86;73.78;101601.28;4996775;28;20239;-74
2023/10/02 02:33:14;;;;;;;8.93;4.83;;;;;;;13.83;74.04;101603.78;5014342;28;20238;-73
2023/10/02 02:35:41;;;;;;;11.93;4.77;;;;;;;13.80;73.93;101610.53;5015603;28;20274;-73
2023/10/02 02:38:14;;;;;;;10.17;5.40;;;;;;;13.78;74.26;101611.94;4996641;28;20216;-74
2023/10/02 02:40:41;;;;;;;8.87;4.77;;;;;;;13.75;74.70;101615.22;4998076;28;20335;-73
2023/10/02 02:43:13;;;;;;;8.93;5.03;;;;;;;13.73;74.43;101606.81;5014215;28;20866;-74
2023/10/02 02:45:41;;;;;;;7.37;4.73;;;;;;;13.71;74.83;101614.34;5012294;28;20219;-73
2023/10/02 02:48:10;;;;;;;9.70;4.63;;;;;;;13.69;75.08;101612.00;5015966;28;20968;-74
2023/10/02 02:50:40;;;;;;;7.73;4.83;;;;;;;13.66;75.14;101607.31;5015781;28;20220;-73
2023/10/02 02:53:23;;;;;;;8.57;4.87;;;;;;;13.64;75.14;101614.84;5014986;28;20204;-73
2023/10/02 02:56:10;;;;;;;8.30;5.00;;;;;;;13.60;75.64;101616.56;4997131;28;20327;-74
2023/10/02 02:58:38;;;;;;;8.73;4.50;;;;;;;13.58;75.72;101610.03;5014916;28;20301;-74
2023/10/02 03:01:12;;;;;;;10.13;5.07;;;;;;;13.55;75.96;101611.44;4997534;28;20810;-73
2023/10/02 03:03:41;;;;;;;8.77;4.80;;;;;;;13.51;76.22;101607.84;5013875;28;20218;-73
2023/10/02 03:06:16;;;;;;;10.07;5.13;;;;;;;13.49;76.18;101617.25;5015368;28;20294;-73
2023/10/02 03:08:44;;;;;;;10.77;4.53;;;;;;;13.47;76.41;101614.13;5015595;28;20545;-73
2023/10/02 03:11:10;;;;;;;9.73;4.83;;;;;;;13.44;76.29;101604.16;5014263;28;20222;-74
2023/10/02 03:13:39;;;;;;;10.03;4.47;;;;;;;13.43;76.85;101611.34;5016211;28;20223;-73
2023/10/02 03:16:13;;;;;;;7.57;4.33;;;;;;;13.42;76.61;101609.81;5017498;28;20210;-74
2023/10/02 03:18:43;;;;;;;8.50;4.80;;;;;;;13.43;76.95;101614.00;5016370;28;20278;-73
2023/10/02 03:21:16;;;;;;;9.90;5.17;;;;;;;13.44;76.57;101620.84;5018878;28;20222;-74
2023/10/02 03:23:43;;;;;;;9.43;5.10;;;;;;;13.46;76.28;101615.25;5019675;28;20204;-74
2023/10/02 03:26:26;;;;;;;8.67;5.00;;;;;;;13.47;76.09;101616.78;5022906;28;20574;-73
2023/10/02 03:29:00;;;;;;;9.17;5.00;;;;;;;13.50;75.83;101621.47;5035350;28;20214;-74
2023/10/02 03:31:35;;;;;;;9.87;5.23;;;;;;;13.52;75.85;101612.09;5003920;28;20339;-74
2023/10/02 03:34:24;;;;;;;10.30;5.23;;;;;;;13.56;75.63;101613.00;5016019;28;20228;-74
2023/10/02 03:36:49;;;;;;;8.50;5.53;;;;;;;13.59;75.68;101600.97;5015155;28;20346;-74
2023/10/02 03:39:23;;;;;;;7.83;4.03;;;;;;;13.61;75.11;101596.88;5016620;28;20219;-74
2023/10/02 03:41:55;;;;;;;10.07;4.87;;;;;;;13.66;75.33;101587.97;4996757;28;20241;-74
2023/10/02 03:44:22;;;;;;;10.57;5.47;;;;;;;13.67;75.17;101594.84;5015289;28;20298;-74
2023/10/02 03:46:51;;;;;;;8.10;4.90;;;;;;;13.67;75.45;101610.75;5018306;28;20207;-74
2023/10/02 03:49:18;;;;;;;8.83;4.47;;;;;;;13.63;75.57;101605.31;5023577;28;20254;-74
2023/10/02 03:51:45;;;;;;;10.57;5.27;;;;;;;13.63;75.95;101601.88;5014830;28;20226;-74
2023/10/02 03:54:20;;;;;;;9.40;5.17;;;;;;;13.60;76.26;101605.94;5016131;28;20305;-74
2023/10/02 03:56:48;;;;;;;9.43;4.50;;;;;;;13.58;76.47;101612.69;5005898;28;20211;-73
2023/10/02 03:59:16;;;;;;;9.10;5.57;;;;;;;13.55;75.96;101606.13;5012905;28;20220;-73
2023/10/02 04:01:43;;;;;;;6.87;4.67;;;;;;;13.52;76.63;101609.44;4994732;28;20222;-73
2023/10/02 04:04:19;;;;;;;9.13;4.97;;;;;;;13.48;76.61;101611.16;4996235;28;20252;-73
2023/10/02 04:06:47;;;;;;;9.73;5.07;;;;;;;13.46;76.61;101601.97;5014753;28;20814;-74
2023/10/02 04:09:21;;;;;;;10.53;5.37;;;;;;;13.43;76.45;101607.91;5015650;28;20233;-74
2023/10/02 04:11:50;;;;;;;9.07;4.87;;;;;;;13.38;76.69;101608.88;5014312;28;20239;-73
2023/10/02 04:14:18;;;;;;;7.53;5.03;;;;;;;13.34;76.20;101602.63;5014612;28;20210;-73
2023/10/02 04:16:46;;;;;;;8.97;5.10;;;;;;;13.29;76.73;101596.72;4997782;28;20679;-73
2023/10/02 04:19:15;;;;;;;7.60;4.77;;;;;;;13.25;76.73;101595.81;5013969;28;20220;-73
2023/10/02 04:21:42;;;;;;;9.27;5.40;;;;;;;13.21;76.91;101597.53;5002207;28;20226;-74
2023/10/02 04:24:09;;;;;;;8.77;4.90;;;;;;;13.15;76.71;101599.59;5015489;28;20321;-73
2023/10/02 04:26:36;;;;;;;11.73;5.53;;;;;;;13.13;77.15;101601.00;5017109;28;20292;-73
2023/10/02 04:29:14;;;;;;;6.60;4.40;;;;;;;13.07;77.09;101608.34;5014909;28;20215;-73
2023/10/02 04:31:42;;;;;;;12.60;5.57;;;;;;;13.01;77.55;101601.69;5014258;28;20270;-74
2023/10/02 04:34:29;;;;;;;12.17;5.17;;;;;;;12.97;77.87;101594.66;5017054;28;21418;-74
2023/10/02 04:36:56;;;;;;;8.17;5.07;;;;;;;12.93;77.75;101602.44;5005888;28;20222;-74
2023/10/02 04:40:13;;;;;;;10.20;5.40;;;;;;;12.85;77.85;101595.28;5015088;28;20225;-74
2023/10/02 04:45:21;;;;;;;10.43;5.07;;;;;;;12.77;78.79;101595.28;5014123;28;20233;-73
2023/10/02 04:47:48;;;;;;;11.23;5.20;;;;;;;12.72;78.54;101596.25;5014718;28;20230;-73
2023/10/02 04:53:15;;;;;;;8.33;5.03;;;;;;;12.66;78.98;101589.56;5013213;28;20784;-74
2023/10/02 04:55:42;;;;;;;10.77;5.93;;;;;;;12.62;78.63;101593.91;4998492;28;20211;-73
2023/10/02 04:58:13;;;;;;;11.80;5.73;;;;;;;12.60;79.21;101590.03;5015376;28;20227;-73
2023/10/02 05:01:15;;;;;;;9.80;5.80;;;;;;;12.58;79.29;101586.91;5014587;28;20724;-74
2023/10/02 05:03:26;;;;;;;11.37;5.80;;;;;;;12.54;79.96;101586.00;5017608;28;20216;-74
2023/10/02 05:05:54;;;;;;;10.47;5.80;;;;;;;12.52;79.28;101598.78;5018694;28;20205;-73
2023/10/02 05:08:33;;;;;;;9.43;5.17;;;;;;;12.48;79.77;101588.00;5019179;28;20251;-73
2023/10/02 05:11:05;;;;;;;11.70;5.47;;;;;;;12.47;79.85;101591.75;5001856;28;20731;-73
2023/10/02 05:16:26;;;;;;;10.10;5.10;;;;;;;12.40;80.16;101594.09;5011903;28;20234;-73
2023/10/02 05:18:53;;;;;;;8.97;4.70;;;;;;;12.39;80.81;101597.84;5019342;28;20207;-73
2023/10/02 05:21:31;;;;;;;14.70;5.97;;;;;;;12.38;80.62;101598.91;5000887;28;20244;-73
2023/10/02 05:24:03;;;;;;;13.47;5.60;;;;;;;12.36;80.83;101590.50;5021617;28;20207;-74
2023/10/02 05:26:36;;;;;;;11.20;5.77;;;;;;;12.35;80.15;101582.88;5020104;28;20302;-73
2023/10/02 05:29:05;;;;;;;8.33;5.47;;;;;;;12.34;80.61;101589.28;5020470;28;20205;-73
2023/10/02 05:31:35;;;;;;;11.73;5.50;;;;;;;12.33;81.10;101580.56;5019460;28;20199;-73
2023/10/02 05:34:06;;;;;;;10.13;5.43;;;;;;;12.32;80.56;101581.63;5020125;28;20208;-73
2023/10/02 05:36:35;;;;;;;10.97;5.60;;;;;;;12.32;80.67;101584.28;5019055;28;20569;-73
2023/10/02 05:39:28;;;;;;;10.57;5.93;;;;;;;12.32;80.04;101588.81;5019369;28;20204;-74
2023/10/02 05:42:05;;;;;;;12.77;5.20;;;;;;;12.33;79.88;101591.16;5019741;28;20233;-74
2023/10/02 05:44:33;;;;;;;10.50;5.73;;;;;;;12.34;80.62;101584.75;5019978;28;20241;-73
2023/10/02 05:47:05;;;;;;;13.17;5.90;;;;;;;12.37;80.09;101594.72;5018436;28;20260;-73
2023/10/02 05:49:32;;;;;;;11.87;5.93;;;;;;;12.39;80.35;101602.34;5017477;28;20239;-73
2023/10/02 05:52:00;;;;;;;11.00;6.03;;;;;;;12.42;80.28;101599.09;5013967;28;20208;-73
2023/10/02 05:54:29;;;;;;;12.47;5.77;;;;;;;12.43;80.94;101598.75;5018279;28;20664;-73
2023/10/02 05:57:08;;;;;;;9.43;5.37;;;;;;;12.46;80.65;101597.34;5016627;28;20263;-73
2023/10/02 05:59:45;;;;;;;11.13;5.50;;;;;;;12.49;81.11;101604.69;5016285;28;20229;-74
2023/10/02 06:02:12;;;;;;;11.03;5.17;;;;;;;12.52;80.88;101615.44;5014623;28;20216;-74
2023/10/02 06:04:43;;;;;;;10.43;5.43;;;;;;;12.56;81.52;101619.03;5015795;28;20245;-73
2023/10/02 06:07:11;;;;;;;9.90;5.63;;;;;;;12.58;80.88;101608.13;5016026;28;20702;-74
2023/10/02 06:09:44;;;;;;;10.27;5.90;;;;;;;12.62;80.63;101614.34;4998714;28;20236;-73
2023/10/02 06:12:11;;;;;;;11.50;5.90;;;;;;;12.67;81.00;101617.59;5016526;28;20205;-73
2023/10/02 06:14:39;;;;;;;9.53;5.00;;;;;;;12.71;81.14;101618.53;5016376;28;20252;-74
2023/10/02 06:17:11;;;;;;;9.37;5.43;;;;;;;12.75;80.53;101614.19;5016870;28;20217;-74
2023/10/02 06:19:43;;;;;;;9.90;5.30;;;;;;;12.80;79.85;101618.53;5016956;28;20595;-73
2023/10/02 06:22:13;;;;;;;9.77;5.13;;;;;;;12.84;79.24;101625.53;5017566;28;20771;-73
2023/10/02 06:24:41;;;;;;;11.43;5.50;;;;;;;12.90;79.20;101624.28;5017022;28;20223;-73
2023/10/02 06:27:13;;;;;;;8.93;5.27;;;;;;;12.97;79.14;101629.91;5016341;28;20208;-73
2023/10/02 06:29:44;;;;;;;11.70;5.70;;;;;;;13.05;78.79;101623.78;5018245;28;20226;-73
2023/10/02 06:32:16;;;;;;;9.63;5.20;;;;;;;13.13;78.51;101625.66;4999708;28;20215;-73
2023/10/02 06:34:44;;;;;;;9.93;5.47;;;;;;;13.22;77.98;101618.47;5016486;28;20530;-74
2023/10/02 06:37:12;;;;;;;12.30;5.33;;;;;;;13.34;78.28;101615.91;5015391;28;20202;-73
2023/10/02 06:39:41;;;;;;;12.90;5.30;;;;;;;13.45;77.63;101622.41;5014787;28;20227;-73
2023/10/02 06:42:09;;;;;;;9.63;5.17;;;;;;;13.53;77.64;101612.84;5014445;28;21222;-74
2023/10/02 06:44:41;;;;;;;16.10;5.67;;;;;;;13.64;77.48;101616.69;5015391;28;20211;-73
2023/10/02 06:47:11;;;;;;;9.60;5.27;;;;;;;13.75;76.72;101612.56;5013991;28;20231;-73
2023/10/02 06:49:40;;;;;;;10.20;5.07;;;;;;;13.88;76.14;101619.53;5015852;28;20242;-74
2023/10/02 06:52:13;;;;;;;10.77;5.47;;;;;;;13.98;76.10;101613.84;5014538;28;20209;-74
2023/10/02 06:54:43;;;;;;;8.73;4.60;;;;;;;14.11;75.46;101610.94;5013204;28;21182;-74
2023/10/02 06:57:11;;;;;;;9.60;5.23;;;;;;;14.21;74.79;101615.13;5012461;28;20582;-74
2023/10/02 06:59:38;;;;;;;10.10;4.93;;;;;;;14.33;75.02;101613.31;5011447;28;20231;-74
2023/10/02 07:02:06;;;;;;;9.87;4.80;;;;;;;14.44;74.53;101613.69;5013023;28;20212;-74
2023/10/02 07:04:36;;;;;;;11.27;4.90;;;;;;;14.60;74.20;101612.75;5013867;28;20196;-74
2023/10/02 07:07:07;;;;;;;8.73;4.57;;;;;;;14.71;74.34;101621.09;5012203;28;20228;-74
2023/10/02 07:09:35;;;;;;;11.33;4.60;;;;;;;14.83;73.36;101621.91;5012248;28;20973;-73
2023/10/02 07:12:13;;;;;;;8.80;4.70;;;;;;;14.96;73.52;101620.06;5011544;28;20270;-74
2023/10/02 07:14:41;;;;;;;8.40;4.63;;;;;;;15.13;71.99;101619.88;5011184;28;20388;-74
2023/10/02 07:17:17;;;;;;;10.03;4.90;;;;;;;15.24;72.52;101615.69;5011278;28;20638;-74
2023/10/02 07:19:48;;;;;;;9.67;4.50;;;;;;;15.36;71.59;101615.75;5011035;28;20916;-74
2023/10/02 07:22:17;;;;;;;10.23;4.57;;;;;;;15.47;72.10;101612.28;5010192;28;20223;-74
2023/10/02 07:24:46;;;;;;;10.57;4.80;;;;;;;15.58;71.27;101624.03;5010120;28;20695;-74
2023/10/02 07:27:23;;;;;;;13.80;5.23;;;;;;;15.68;71.33;101618.28;5011110;28;20202;-74
2023/10/02 07:29:52;;;;;;;11.57;5.03;;;;;;;15.80;70.62;101620.94;5009187;28;20227;-73
2023/10/02 07:32:19;;;;;;;10.53;4.77;;;;;;;15.90;70.41;101623.16;5009073;28;20275;-74
2023/10/02 07:34:46;;;;;;;7.80;4.30;;;;;;;16.02;69.63;101625.78;5008776;28;20217;-74
2023/10/02 07:37:15;;;;;;;11.57;5.07;;;;;;;16.10;69.80;101626.78;5008024;28;20215;-74
2023/10/02 07:39:42;;;;;;;10.17;4.40;;;;;;;16.20;69.34;101624.41;5008290;28;20226;-74
2023/10/02 07:42:10;;;;;;;8.17;4.53;;;;;;;16.28;69.30;101622.72;5007156;28;20219;-74
2023/10/02 07:44:39;;;;;;;9.73;4.87;;;;;;;16.39;68.80;101621.16;5009165;28;20199;-74
2023/10/02 07:47:10;;;;;;;8.30;4.60;;;;;;;16.48;68.75;101629.78;5007203;28;20647;-74
2023/10/02 07:49:38;;;;;;;9.43;5.47;;;;;;;16.61;68.37;101631.31;5008468;28;20688;-74
2023/10/02 07:52:06;;;;;;;9.87;5.10;;;;;;;16.68;68.23;101626.94;5006743;28;20295;-74
2023/10/02 07:54:44;;;;;;;7.77;4.30;;;;;;;16.81;68.00;101617.75;5004661;28;20203;-74
2023/10/02 07:57:13;;;;;;;10.37;4.97;;;;;;;16.95;67.17;101617.34;5007025;28;20207;-74
2023/10/02 07:59:43;;;;;;;10.57;4.93;;;;;;;17.05;67.27;101616.81;5007716;28;20239;-74
2023/10/02 08:02:22;;;;;;;11.50;5.47;;;;;;;17.18;66.87;101620.97;5005110;28;20331;-74
2023/10/02 08:04:49;;;;;;;8.00;4.33;;;;;;;17.28;66.48;101633.81;5008633;28;20214;-74
2023/10/02 08:07:17;;;;;;;9.70;4.03;;;;;;;17.41;65.40;101613.94;5007529;28;20196;-74
2023/10/02 08:09:47;;;;;;;9.20;4.93;;;;;;;17.50;65.27;101627.88;4990645;28;20223;-74
2023/10/02 08:12:29;;;;;;;9.47;4.53;;;;;;;17.59;65.70;101615.88;5012370;28;20270;-75
2023/10/02 08:14:59;;;;;;;8.90;4.70;;;;;;;17.69;65.06;101619.94;5020019;28;20243;-74
2023/10/02 08:17:59;;;;;;;9.77;4.80;;;;;;;17.77;65.32;101614.41;5020124;28;20246;-74
2023/10/02 08:20:24;;;;;;;9.37;4.67;;;;;;;17.91;65.03;101624.63;5011750;28;20227;-74
2023/10/02 08:22:52;;;;;;;10.90;4.83;;;;;;;18.00;64.59;101615.28;5009781;28;21880;-74
2023/10/02 08:25:23;;;;;;;8.20;4.37;;;;;;;18.11;64.04;101612.84;5011188;28;20322;-74
2023/10/02 08:27:55;;;;;;;7.23;4.37;;;;;;;18.23;64.51;101618.84;5007162;28;20786;-74
2023/10/02 08:30:31;;;;;;;9.97;4.80;;;;;;;18.34;63.08;101609.16;5005651;28;20227;-74
2023/10/02 08:33:05;;;;;;;9.13;4.77;;;;;;;18.43;63.61;101609.69;5007581;28;20332;-73
2023/10/02 08:35:32;;;;;;;11.20;5.10;;;;;;;18.55;63.19;101606.88;5004640;28;20219;-74
2023/10/02 08:37:59;;;;;;;8.83;4.80;;;;;;;18.65;63.37;101605.53;5006668;28;20338;-74
2023/10/02 08:40:25;;;;;;;9.43;5.10;;;;;;;18.82;62.06;101613.09;5009072;28;21591;-73
2023/10/02 08:42:53;;;;;;;8.73;4.40;;;;;;;18.93;60.70;101595.34;5006361;28;21709;-74
2023/10/02 08:45:20;;;;;;;7.93;4.80;;;;;;;19.06;61.57;101594.03;5007444;28;20196;-74
2023/10/02 08:47:48;;;;;;;9.57;4.97;;;;;;;19.14;61.54;101593.03;4989275;28;21610;-73
2023/10/02 08:50:16;;;;;;;8.60;4.70;;;;;;;19.25;59.64;101596.66;5007699;28;20219;-74
2023/10/02 08:52:47;;;;;;;9.97;4.73;;;;;;;19.33;60.03;101599.09;5005323;28;20207;-74
2023/10/02 08:55:35;;;;;;;11.67;5.33;;;;;;;19.45;61.01;101598.13;4988295;28;20209;-73
2023/10/02 08:58:15;;;;;;;9.30;4.70;;;;;;;19.56;59.61;101599.06;5006763;28;20824;-74
2023/10/02 09:01:04;;;;;;;9.60;5.07;;;;;;;19.65;59.92;101600.34;5004237;28;20270;-74
2023/10/02 09:03:41;;;;;;;10.20;5.40;;;;;;;19.81;59.13;101592.16;5001126;28;20215;-74
2023/10/02 09:11:34;;;;;;;9.70;4.87;;;;;;;20.13;58.12;101590.66;5002208;28;20204;-74
2023/10/02 09:14:15;;;;;;;8.83;4.30;;;;;;;20.25;56.95;101587.75;5002117;28;20234;-74
2023/10/02 09:16:43;;;;;;;9.67;4.73;;;;;;;20.33;58.24;101582.09;5004344;28;20208;-73
2023/10/02 09:21:53;;;;;;;8.03;4.73;;;;;;;20.53;57.18;101575.41;5002284;28;20338;-74
2023/10/02 09:24:21;;;;;;;9.63;4.90;;;;;;;20.62;57.40;101580.47;5003240;28;20212;-74
2023/10/02 09:26:47;;;;;;;7.63;4.67;;;;;;;20.72;55.88;101571.75;5000435;28;20204;-74
2023/10/02 09:29:16;;;;;;;9.43;4.40;;;;;;;20.78;56.87;101578.31;5002366;28;20220;-73
2023/10/02 09:31:44;;;;;;;10.80;4.93;;;;;;;20.87;55.51;101574.22;4983020;28;21721;-74
2023/10/02 09:34:16;;;;;;;8.57;4.37;;;;;;;21.00;54.90;101572.06;5001636;28;20215;-73
2023/10/02 09:36:52;;;;;;;8.93;4.87;;;;;;;21.05;54.75;101572.47;4999676;28;20204;-74
2023/10/02 09:39:36;;;;;;;8.83;4.20;;;;;;;21.16;56.67;101572.56;4983881;28;21614;-74
2023/10/02 09:42:07;;;;;;;10.73;4.70;;;;;;;21.27;53.95;101562.66;5000312;28;20958;-74
2023/10/02 09:44:40;;;;;;;9.53;5.07;;;;;;;21.34;55.30;101566.16;5001283;28;20958;-74
2023/10/02 09:47:06;;;;;;;9.37;4.80;;;;;;;21.44;54.05;101573.53;5002672;28;20288;-74
2023/10/02 09:49:43;;;;;;;9.03;4.60;;;;;;;21.54;53.63;101574.72;5000886;28;20219;-74
2023/10/02 09:52:15;;;;;;;8.70;4.60;;;;;;;21.60;55.40;101570.53;5000329;28;20211;-73
2023/10/02 09:54:51;;;;;;;9.03;4.70;;;;;;;21.73;52.53;101561.06;5001056;28;20230;-74
2023/10/02 09:57:24;;;;;;;9.50;4.70;;;;;;;21.82;55.01;101564.94;4999630;28;20211;-74
2023/10/02 09:59:51;;;;;;;13.00;4.60;;;;;;;21.91;53.72;101560.00;4999552;28;20227;-74
2023/10/02 10:08:18;;;;;;;10.37;4.80;;;;;;;22.22;52.93;101561.25;4998293;28;20219;-74
2023/10/02 10:10:48;;;;;;;10.80;4.93;;;;;;;22.37;52.71;101566.28;5000315;28;20224;-74
2023/10/02 10:13:31;;;;;;;7.97;4.50;;;;;;;22.48;51.95;101556.34;4997233;28;20204;-74
2023/10/02 10:16:36;;;;;;;9.10;4.40;;;;;;;22.61;52.61;101557.50;4997500;28;20196;-74
2023/10/02 10:19:30;;;;;;;10.00;4.67;;;;;;;22.77;51.38;101568.69;4912994;28;20889;-74
2023/10/02 10:21:58;;;;;;;10.07;4.90;;;;;;;22.88;50.24;101561.41;4915223;28;20222;-74
2023/10/02 10:24:51;;;;;;;9.83;4.53;;;;;;;22.97;51.25;101566.41;4969606;28;20220;-74
2023/10/02 10:28:05;;;;;;;10.48;5.70;;;;;;;23.05;50.44;101557.94;4995328;28;20215;-73
2023/10/02 10:30:39;;;;;;;11.02;6.22;;;;;;;23.19;49.66;101560.63;4998390;28;20228;-74
2023/10/02 10:33:35;;;;;;;9.52;4.38;;;;;;;23.28;52.05;101561.00;4996893;28;20208;-74
2023/10/02 10:36:08;;;;;;;8.63;4.63;;;;;;;23.39;50.23;101558.31;4995147;28;20204;-75
2023/10/02 10:38:41;;;;;;;8.98;4.53;;;;;;;23.48;50.49;101552.50;4997660;28;20821;-75
2023/10/02 10:41:09;;;;;;;8.30;4.50;;;;;;;23.51;51.56;101549.78;4998165;28;20234;-72
2023/10/02 10:43:55;;;;;;;9.15;4.70;;;;;;;23.59;49.82;101552.06;4996810;28;20248;-73
2023/10/02 10:46:24;;;;;;;7.32;4.00;;;;;;;23.67;50.21;101541.28;4995404;28;20215;-73
2023/10/02 10:49:07;;;;;;;10.07;4.38;;;;;;;23.77;50.40;101535.09;4997157;28;20210;-73
2023/10/02 10:51:34;;;;;;;7.63;4.32;;;;;;;23.84;51.78;101531.19;4996510;28;20254;-74
2023/10/02 10:54:13;;;;;;;10.63;4.45;;;;;;;23.96;50.55;101537.34;4994606;28;20204;-73
2023/10/02 10:56:44;;;;;;;9.43;4.57;;;;;;;24.02;49.90;101533.06;4994335;28;20207;-73
2023/10/02 10:59:12;;;;;;;7.68;4.30;;;;;;;24.10;49.33;101523.78;4996431;28;21158;-73
2023/10/02 11:01:39;;;;;;;8.40;3.60;;;;;;;24.17;49.87;101521.81;4975221;28;20204;-73
2023/10/02 11:04:06;;;;;;;8.43;4.18;;;;;;;24.26;48.96;101522.16;4995076;28;20261;-73
2023/10/02 11:06:32;;;;;;;7.40;4.50;;;;;;;24.37;47.97;101522.06;4976670;28;20223;-73
2023/10/02 11:09:11;;;;;;;7.95;4.13;;;;;;;24.42;48.98;101515.09;4995630;28;20207;-73
2023/10/02 11:11:48;;;;;;;8.57;4.20;;;;;;;24.52;47.90;101519.66;4995670;28;20211;-73
2023/10/02 11:14:20;;;;;;;7.72;3.95;;;;;;;24.61;48.37;101511.13;4994944;28;20207;-73
2023/10/02 11:16:51;;;;;;;8.15;4.30;;;;;;;24.68;48.67;101510.31;4994975;28;20325;-74
2023/10/02 11:19:35;;;;;;;9.77;4.18;;;;;;;24.74;48.67;101511.41;4995924;28;20364;-73
2023/10/02 11:22:02;;;;;;;6.85;3.90;;;;;;;24.79;47.09;101506.34;4993682;28;20703;-73
2023/10/02 11:24:28;;;;;;;7.90;4.43;;;;;;;24.82;47.83;101505.53;4994635;28;20207;-73
2023/10/02 11:27:06;;;;;;;7.25;4.05;;;;;;;24.85;48.37;101510.16;4992268;28;20200;-74
2023/10/02 11:29:40;;;;;;;7.15;4.22;;;;;;;24.89;46.22;101508.19;4976863;28;20235;-73
2023/10/02 11:32:20;;;;;;;8.85;4.18;;;;;;;24.93;48.07;101500.84;4993670;28;20207;-73
2023/10/02 11:34:47;;;;;;;9.05;4.43;;;;;;;24.97;46.69;101503.50;4992429;28;20207;-73
2023/10/02 11:37:15;;;;;;;6.38;3.65;;;;;;;24.98;47.33;101495.00;4991296;28;20204;-73
2023/10/02 11:39:42;;;;;;;10.55;4.40;;;;;;;24.99;47.89;101496.53;4992143;28;20781;-73
2023/10/02 11:42:11;;;;;;;8.05;4.10;;;;;;;25.02;47.97;101492.25;4987025;28;20228;-73
2023/10/02 11:44:39;;;;;;;7.60;3.58;;;;;;;25.05;48.07;101491.44;4995246;28;20215;-73
2023/10/02 11:47:09;;;;;;;8.07;3.78;;;;;;;25.06;47.57;101490.25;4991644;28;20393;-73
2023/10/02 11:49:36;;;;;;;6.05;3.42;;;;;;;25.05;46.86;101489.50;4992834;28;20223;-73
2023/10/02 11:52:03;;;;;;;7.88;3.75;;;;;;;25.07;47.60;101489.13;4992057;28;20215;-73
2023/10/02 11:54:32;;;;;;;7.15;3.80;;;;;;;25.07;47.45;101487.16;4991052;28;20212;-73
2023/10/02 11:56:58;;;;;;;7.03;3.70;;;;;;;25.10;47.71;101472.09;4992476;28;20210;-73
2023/10/02 11:59:28;;;;;;;7.00;3.63;;;;;;;25.10;46.41;101469.38;4994877;28;20243;-73
2023/10/02 12:01:57;;;;;;;8.93;3.40;;;;;;;25.11;46.84;101474.38;4993641;28;20219;-73
2023/10/02 12:04:23;;;;;;;6.88;3.90;;;;;;;25.11;48.32;101470.91;4991953;28;20892;-73
2023/10/02 12:06:54;;;;;;;5.93;3.08;;;;;;;25.13;47.43;101474.75;4992736;28;20219;-73